Time;durP1;ratioP1;P1;durP2;ratioP2;P2;SDS_P1;SDS_P2;PMS_P1;PMS_P2;Temp;Humidity;BMP_temperature;BMP_pressure;BME280_temperature;BME280_humidity;BME280_pressure;Samples;Min_cycle;Max_cycle;Signal;HPM_P1;HPM_P2
2023/02/02 00:00:56;;;;;;;9.23;3.38;;;6.50;99.90;;;;;;5031258;28;20424;-64
2023/02/02 00:03:22;;;;;;;13.52;3.63;;;6.50;99.90;;;;;;5027158;28;20029;-63
2023/02/02 00:05:51;;;;;;;13.52;4.63;;;6.50;99.90;;;;;;5035204;28;20033;-65
2023/02/02 00:08:18;;;;;;;14.15;3.35;;;6.50;99.90;;;;;;5041691;28;20029;-64
2023/02/02 00:10:44;;;;;;;12.48;3.20;;;6.50;99.90;;;;;;5050731;28;20028;-64
2023/02/02 00:13:10;;;;;;;15.88;4.25;;;6.60;99.90;;;;;;5021520;28;20079;-64
2023/02/02 00:15:36;;;;;;;18.23;4.43;;;6.60;99.90;;;;;;5027766;28;20034;-65
2023/02/02 00:18:02;;;;;;;12.18;3.47;;;6.60;99.90;;;;;;5021772;28;20029;-63
2023/02/02 00:20:28;;;;;;;9.40;3.13;;;6.60;99.90;;;;;;5030618;28;20037;-64
2023/02/02 00:22:54;;;;;;;13.27;3.95;;;6.60;99.90;;;;;;5028364;28;20118;-64
2023/02/02 00:25:20;;;;;;;12.13;3.88;;;6.60;99.90;;;;;;5020583;28;20076;-64
2023/02/02 00:27:45;;;;;;;12.40;4.10;;;6.70;99.90;;;;;;5031759;28;20018;-64
2023/02/02 00:30:12;;;;;;;10.32;3.45;;;6.60;99.90;;;;;;5040502;28;20029;-64
2023/02/02 00:32:39;;;;;;;17.30;4.18;;;6.70;99.90;;;;;;5026385;28;20033;-64
2023/02/02 00:35:06;;;;;;;12.90;4.10;;;6.70;99.90;;;;;;5023179;28;20409;-64
2023/02/02 00:37:31;;;;;;;10.68;3.00;;;6.80;99.90;;;;;;5025219;28;20138;-64
2023/02/02 00:39:57;;;;;;;13.90;3.78;;;6.80;99.90;;;;;;5025947;28;20053;-64
2023/02/02 00:42:22;;;;;;;10.40;3.75;;;6.80;99.90;;;;;;5027281;28;20060;-64
2023/02/02 00:47:32;;;;;;;18.67;4.00;;;6.80;99.90;;;;;;5029245;28;20018;-64
2023/02/02 00:49:58;;;;;;;10.45;3.53;;;6.90;99.90;;;;;;5032341;28;20032;-65
2023/02/02 00:52:24;;;;;;;8.00;2.95;;;6.90;99.90;;;;;;5029754;28;20492;-64
2023/02/02 00:54:49;;;;;;;15.05;4.15;;;6.90;99.90;;;;;;5028036;28;20492;-65
2023/02/02 00:57:15;;;;;;;20.55;3.33;;;7.00;99.90;;;;;;5007453;28;20054;-65
2023/02/02 00:59:41;;;;;;;8.85;3.40;;;7.00;99.90;;;;;;4978294;28;20049;-65
2023/02/02 01:02:11;;;;;;;17.05;4.65;;;7.00;99.90;;;;;;5012344;28;20064;-65
2023/02/02 01:04:37;;;;;;;9.45;3.65;;;7.00;99.90;;;;;;5014338;28;20116;-64
2023/02/02 01:07:03;;;;;;;11.77;3.92;;;7.00;99.90;;;;;;5013078;28;20108;-65
2023/02/02 01:09:28;;;;;;;14.52;4.03;;;7.10;99.90;;;;;;5015024;28;20030;-65
2023/02/02 01:11:54;;;;;;;9.32;3.03;;;7.10;99.90;;;;;;5012984;28;20034;-65
2023/02/02 01:14:20;;;;;;;14.35;3.47;;;7.10;99.90;;;;;;5009847;28;20421;-64
2023/02/02 01:16:46;;;;;;;11.77;4.07;;;7.10;99.90;;;;;;5032720;28;20469;-65
2023/02/02 01:19:13;;;;;;;13.98;3.95;;;7.10;99.90;;;;;;5030467;28;20124;-64
2023/02/02 01:21:39;;;;;;;18.67;4.10;;;7.10;99.90;;;;;;5015341;28;20109;-65
2023/02/02 01:24:05;;;;;;;17.17;4.63;;;7.10;99.90;;;;;;5013293;28;20132;-65
2023/02/02 01:26:30;;;;;;;9.38;3.85;;;7.10;99.90;;;;;;5012011;28;20040;-64
2023/02/02 01:28:56;;;;;;;12.13;4.32;;;7.10;99.90;;;;;;5025719;28;20030;-63
2023/02/02 01:31:21;;;;;;;16.10;4.03;;;7.00;99.90;;;;;;5021313;28;20037;-64
2023/02/02 01:33:48;;;;;;;11.90;3.72;;;7.00;99.90;;;;;;5026990;28;20385;-64
2023/02/02 01:36:22;;;;;;;8.95;3.50;;;7.00;99.90;;;;;;5014560;28;20120;-64
2023/02/02 01:38:49;;;;;;;13.35;3.10;;;7.00;99.90;;;;;;5019389;28;20558;-64
2023/02/02 01:41:17;;;;;;;13.38;3.35;;;6.90;99.90;;;;;;5029248;28;20037;-63
2023/02/02 01:43:43;;;;;;;9.25;3.60;;;6.90;99.90;;;;;;5020570;28;20461;-63
2023/02/02 01:46:20;;;;;;;14.75;4.05;;;6.90;99.90;;;;;;5023489;28;20033;-64
2023/02/02 01:49:08;;;;;;;10.30;3.00;;;6.80;99.90;;;;;;5026126;28;20061;-65
2023/02/02 01:51:49;;;;;;;12.20;3.33;;;6.80;99.90;;;;;;5028541;28;20087;-64
2023/02/02 01:54:22;;;;;;;13.88;3.55;;;6.80;99.90;;;;;;5023272;28;20029;-64
2023/02/02 01:56:57;;;;;;;11.80;3.63;;;6.80;99.90;;;;;;5031572;28;20067;-64
2023/02/02 01:59:23;;;;;;;10.68;3.17;;;6.80;99.90;;;;;;5027975;28;20049;-63
2023/02/02 02:01:53;;;;;;;15.50;5.32;;;6.80;99.90;;;;;;5019188;28;20073;-64
2023/02/02 02:04:20;;;;;;;12.18;2.63;;;6.80;99.90;;;;;;5032823;28;20036;-63
2023/02/02 02:06:47;;;;;;;14.85;2.88;;;6.80;99.90;;;;;;5038403;28;20021;-63
2023/02/02 02:09:13;;;;;;;10.63;3.10;;;6.80;99.90;;;;;;5019893;28;20668;-64
2023/02/02 02:11:39;;;;;;;12.32;3.13;;;6.80;99.90;;;;;;5030113;28;20061;-64
2023/02/02 02:16:57;;;;;;;12.13;3.90;;;6.80;99.90;;;;;;5019830;28;20057;-64
2023/02/02 02:19:35;;;;;;;8.23;3.58;;;6.80;99.90;;;;;;5024036;28;20496;-64
2023/02/02 02:28:42;;;;;;;12.45;3.33;;;6.80;99.90;;;;;;5015004;28;20033;-64
2023/02/02 02:31:29;;;;;;;12.15;4.32;;;6.80;99.90;;;;;;5017319;28;20024;-64
2023/02/02 02:34:06;;;;;;;8.75;3.13;;;6.80;99.90;;;;;;5014405;28;20021;-63
2023/02/02 02:37:16;;;;;;;11.65;3.85;;;6.80;99.90;;;;;;5023502;28;20037;-64
2023/02/02 02:39:49;;;;;;;9.57;3.95;;;6.80;99.90;;;;;;4994426;28;20484;-64
2023/02/02 02:42:22;;;;;;;11.75;3.33;;;6.80;99.90;;;;;;5015006;28;20533;-64
2023/02/02 02:44:49;;;;;;;14.73;3.30;;;6.80;99.90;;;;;;5017411;28;20470;-64
2023/02/02 02:47:18;;;;;;;11.63;3.97;;;6.80;99.90;;;;;;5033186;28;20026;-64
2023/02/02 02:49:45;;;;;;;10.55;3.92;;;6.90;99.90;;;;;;5040465;28;20037;-64
2023/02/02 02:52:11;;;;;;;11.73;3.47;;;6.90;99.90;;;;;;5033107;28;20017;-64
2023/02/02 02:54:44;;;;;;;11.05;3.00;;;6.90;99.90;;;;;;5037465;28;20033;-64
2023/02/02 02:58:01;;;;;;;11.45;4.00;;;6.90;99.90;;;;;;5014792;28;20054;-65
2023/02/02 03:00:33;;;;;;;10.82;3.40;;;6.90;99.90;;;;;;4959063;28;20039;-64
2023/02/02 03:03:19;;;;;;;7.10;2.72;;;6.90;99.90;;;;;;5023660;28;20424;-65
2023/02/02 03:06:12;;;;;;;14.45;3.58;;;7.00;99.90;;;;;;5034940;28;20036;-64
2023/02/02 03:09:06;;;;;;;10.68;2.42;;;7.00;99.90;;;;;;5002692;28;20026;-64
2023/02/02 03:11:34;;;;;;;11.07;3.28;;;7.00;99.90;;;;;;5042160;28;20025;-64
2023/02/02 03:14:00;;;;;;;10.55;4.18;;;7.00;99.90;;;;;;5025729;28;20034;-64
2023/02/02 03:16:26;;;;;;;8.10;2.50;;;7.00;99.90;;;;;;5017613;28;20466;-64
2023/02/02 03:18:52;;;;;;;10.98;2.83;;;7.00;99.90;;;;;;5024300;28;20052;-64
2023/02/02 03:21:18;;;;;;;8.63;2.92;;;7.00;99.90;;;;;;5025439;28;20036;-64
2023/02/02 03:23:43;;;;;;;12.68;2.80;;;7.00;99.90;;;;;;5017012;28;20025;-64
2023/02/02 03:26:09;;;;;;;8.10;3.30;;;7.00;99.90;;;;;;5016910;28;20021;-64
2023/02/02 03:28:35;;;;;;;10.45;3.17;;;7.00;99.90;;;;;;5028765;28;20029;-67
2023/02/02 03:31:01;;;;;;;8.02;2.42;;;7.00;99.90;;;;;;5040125;28;20053;-64
2023/02/02 03:33:27;;;;;;;8.60;2.75;;;7.00;99.90;;;;;;5043918;28;20472;-64
2023/02/02 03:35:53;;;;;;;5.88;2.65;;;7.00;99.90;;;;;;5028161;28;20043;-64
2023/02/02 03:38:18;;;;;;;13.05;2.20;;;7.00;99.90;;;;;;5027876;28;20033;-63
2023/02/02 03:40:44;;;;;;;8.68;2.03;;;7.00;99.90;;;;;;5012247;28;20025;-63
2023/02/02 03:43:10;;;;;;;9.32;2.85;;;7.10;99.90;;;;;;5029832;28;20473;-63
2023/02/02 03:45:36;;;;;;;8.27;2.00;;;7.00;99.90;;;;;;5033517;28;20032;-63
2023/02/02 03:48:05;;;;;;;9.75;2.58;;;7.00;99.90;;;;;;5001767;28;20567;-63
2023/02/02 03:50:31;;;;;;;9.88;4.07;;;7.00;99.90;;;;;;5022085;28;20029;-64
2023/02/02 03:52:57;;;;;;;8.75;2.35;;;7.00;99.90;;;;;;5026621;28;20040;-63
2023/02/02 03:55:22;;;;;;;12.60;2.67;;;7.00;99.90;;;;;;5031334;28;20357;-63
2023/02/02 03:57:48;;;;;;;8.13;3.05;;;7.00;99.90;;;;;;5026143;28;20100;-63
2023/02/02 04:00:14;;;;;;;7.80;2.42;;;7.00;99.90;;;;;;5016312;28;20042;-64
2023/02/02 04:02:40;;;;;;;7.35;2.58;;;7.00;99.90;;;;;;5025280;28;20369;-64
2023/02/02 04:05:06;;;;;;;12.00;2.00;;;7.00;99.90;;;;;;5014865;28;20120;-63
2023/02/02 04:07:32;;;;;;;13.57;3.33;;;7.00;99.90;;;;;;5031898;28;20029;-64
2023/02/02 04:09:58;;;;;;;9.75;2.17;;;7.10;99.90;;;;;;5028985;28;20032;-63
2023/02/02 04:12:23;;;;;;;5.55;2.55;;;7.00;99.90;;;;;;5032919;28;20018;-63
2023/02/02 04:14:49;;;;;;;7.35;2.00;;;7.00;99.90;;;;;;5030637;28;20505;-63
2023/02/02 04:17:14;;;;;;;9.10;2.30;;;7.00;99.90;;;;;;5014124;28;20358;-63
2023/02/02 04:19:40;;;;;;;7.35;2.10;;;7.10;99.90;;;;;;5019135;28;20034;-64
2023/02/02 04:22:06;;;;;;;6.15;1.67;;;7.10;99.90;;;;;;5015446;28;20037;-63
2023/02/02 04:24:31;;;;;;;8.15;2.05;;;7.10;99.90;;;;;;5022064;28;20028;-63
2023/02/02 04:26:57;;;;;;;9.32;2.70;;;7.10;99.90;;;;;;5033770;28;20017;-64
2023/02/02 04:29:24;;;;;;;7.60;2.70;;;7.10;99.90;;;;;;5023132;28;20041;-63
2023/02/02 04:31:49;;;;;;;5.38;1.77;;;7.10;99.90;;;;;;5022320;28;20030;-63
2023/02/02 04:34:15;;;;;;;6.50;2.17;;;7.10;99.90;;;;;;5019212;28;20079;-64
2023/02/02 04:36:40;;;;;;;5.13;2.63;;;7.20;99.90;;;;;;5032281;28;20025;-63
2023/02/02 04:39:06;;;;;;;6.88;2.00;;;7.20;99.90;;;;;;5035691;28;20412;-64
2023/02/02 04:41:31;;;;;;;6.80;2.05;;;7.10;99.90;;;;;;5023589;28;20248;-64
2023/02/02 04:43:57;;;;;;;7.47;2.35;;;7.10;99.90;;;;;;5014597;28;20034;-63
2023/02/02 04:46:23;;;;;;;5.90;2.17;;;7.10;99.90;;;;;;5026608;28;20017;-64
2023/02/02 04:48:48;;;;;;;5.63;2.53;;;7.10;99.90;;;;;;5044749;28;20227;-63
2023/02/02 04:51:14;;;;;;;8.93;3.15;;;7.10;99.90;;;;;;5037855;28;20081;-63
2023/02/02 04:53:41;;;;;;;7.15;2.72;;;7.20;99.90;;;;;;5030287;28;20477;-63
2023/02/02 04:56:12;;;;;;;17.25;3.00;;;7.20;99.90;;;;;;5012655;28;20049;-64
2023/02/02 04:58:38;;;;;;;10.45;3.15;;;7.20;99.90;;;;;;5019260;28;20038;-63
2023/02/02 05:01:18;;;;;;;8.82;2.03;;;7.20;99.90;;;;;;5038172;28;20021;-64
2023/02/02 05:03:44;;;;;;;6.43;2.97;;;7.20;99.90;;;;;;5023497;28;20036;-64
2023/02/02 05:06:10;;;;;;;6.45;2.25;;;7.20;99.90;;;;;;5020887;28;20112;-64
2023/02/02 05:08:36;;;;;;;7.55;2.53;;;7.20;99.90;;;;;;5028492;28;20029;-64
2023/02/02 05:11:09;;;;;;;8.07;2.53;;;7.20;99.90;;;;;;5027401;28;20034;-65
2023/02/02 05:13:35;;;;;;;10.45;2.10;;;7.20;99.90;;;;;;5017969;28;20018;-63
2023/02/02 05:16:01;;;;;;;8.70;2.75;;;7.20;99.90;;;;;;5027005;28;20040;-65
2023/02/02 05:18:27;;;;;;;11.18;3.13;;;7.20;99.90;;;;;;5029602;28;20099;-64
2023/02/02 05:20:53;;;;;;;8.48;2.63;;;7.20;99.90;;;;;;5025349;28;20033;-64
2023/02/02 05:23:19;;;;;;;10.20;2.90;;;7.10;99.90;;;;;;5029301;28;20091;-64
2023/02/02 05:25:52;;;;;;;7.93;2.67;;;7.10;99.90;;;;;;5033969;28;20025;-63
2023/02/02 05:28:17;;;;;;;11.45;2.83;;;7.10;99.90;;;;;;5017481;28;20040;-63
2023/02/02 05:30:43;;;;;;;7.50;2.63;;;7.10;99.90;;;;;;5027648;28;20026;-64
2023/02/02 05:33:10;;;;;;;7.78;2.72;;;7.10;99.90;;;;;;5036599;28;20036;-64
2023/02/02 05:35:36;;;;;;;9.88;3.10;;;7.10;99.90;;;;;;5023013;28;20186;-63
2023/02/02 05:38:01;;;;;;;12.23;3.10;;;7.10;99.90;;;;;;5026684;28;20025;-64
2023/02/02 05:40:27;;;;;;;9.85;2.45;;;7.10;99.90;;;;;;5027808;28;20030;-63
2023/02/02 05:42:52;;;;;;;10.43;2.28;;;7.10;99.90;;;;;;5049842;28;20094;-64
2023/02/02 05:45:18;;;;;;;7.35;2.28;;;7.00;99.90;;;;;;5031279;28;20431;-64
2023/02/02 05:47:44;;;;;;;8.77;2.10;;;7.10;99.90;;;;;;5017555;28;20022;-64
2023/02/02 05:50:09;;;;;;;5.70;2.50;;;7.10;99.90;;;;;;5014080;28;20053;-64
2023/02/02 05:52:37;;;;;;;9.55;2.47;;;7.20;99.90;;;;;;5031864;28;20132;-63
2023/02/02 05:55:03;;;;;;;7.15;2.28;;;7.20;99.90;;;;;;5026860;28;20036;-64
2023/02/02 05:57:29;;;;;;;12.48;3.38;;;7.10;99.90;;;;;;5002331;28;20506;-65
2023/02/02 05:59:55;;;;;;;7.18;1.85;;;7.20;99.90;;;;;;4989562;28;20040;-64
2023/02/02 06:02:20;;;;;;;11.32;2.67;;;7.20;99.90;;;;;;4997089;28;20077;-65
2023/02/02 06:04:46;;;;;;;8.55;2.75;;;7.20;99.90;;;;;;4995151;28;20030;-63
2023/02/02 06:07:12;;;;;;;10.85;2.97;;;7.20;99.90;;;;;;5004035;28;20032;-64
2023/02/02 06:09:37;;;;;;;9.95;2.85;;;7.20;99.90;;;;;;5016830;28;20041;-64
2023/02/02 06:12:04;;;;;;;6.65;2.20;;;7.20;99.90;;;;;;5012133;28;20055;-64
2023/02/02 06:14:29;;;;;;;11.98;3.10;;;7.20;99.90;;;;;;5004558;28;20161;-64
2023/02/02 06:16:55;;;;;;;11.35;3.03;;;7.20;99.90;;;;;;4996393;28;20113;-64
2023/02/02 06:19:21;;;;;;;8.85;3.25;;;7.20;99.90;;;;;;4996323;28;20098;-63
2023/02/02 06:21:46;;;;;;;6.63;2.30;;;7.30;99.90;;;;;;4992916;28;20449;-63
2023/02/02 06:24:12;;;;;;;7.15;2.53;;;7.30;99.90;;;;;;4997235;28;20034;-66
2023/02/02 06:26:38;;;;;;;9.80;2.90;;;7.30;99.90;;;;;;4989687;28;20022;-68
2023/02/02 06:29:03;;;;;;;6.60;2.50;;;7.30;99.90;;;;;;4997796;28;20062;-67
2023/02/02 06:31:29;;;;;;;14.95;3.85;;;7.30;99.90;;;;;;5018775;28;20148;-67
2023/02/02 06:33:57;;;;;;;5.78;2.30;;;7.30;99.90;;;;;;5003660;28;20058;-67
2023/02/02 06:36:24;;;;;;;8.52;3.33;;;7.30;99.90;;;;;;4998434;28;20053;-68
2023/02/02 06:38:52;;;;;;;11.07;3.38;;;7.30;99.90;;;;;;5023993;28;20037;-68
2023/02/02 06:41:19;;;;;;;8.70;2.17;;;7.30;99.90;;;;;;5008493;28;20501;-67
2023/02/02 06:43:45;;;;;;;8.60;2.08;;;7.30;99.90;;;;;;5007361;28;20104;-67
2023/02/02 06:46:11;;;;;;;11.02;2.50;;;7.30;99.90;;;;;;5004770;28;20030;-66
2023/02/02 06:48:37;;;;;;;10.20;2.83;;;7.30;99.90;;;;;;5008955;28;20385;-67
2023/02/02 06:51:04;;;;;;;6.40;2.35;;;7.30;99.90;;;;;;5005064;28;20136;-67
2023/02/02 06:53:48;;;;;;;11.07;2.60;;;7.30;99.90;;;;;;5014210;28;20412;-67
2023/02/02 06:56:34;;;;;;;13.60;2.92;;;7.30;99.90;;;;;;5013213;28;20143;-66
2023/02/02 06:59:20;;;;;;;10.82;3.13;;;7.20;99.90;;;;;;5023846;28;20049;-67
2023/02/02 07:02:15;;;;;;;11.00;3.15;;;7.30;99.90;;;;;;5020518;28;20437;-67
2023/02/02 07:05:01;;;;;;;6.03;2.72;;;7.30;99.90;;;;;;5017591;28;20124;-67
2023/02/02 07:07:47;;;;;;;7.57;2.45;;;7.30;99.90;;;;;;5011571;28;20049;-67
2023/02/02 07:10:36;;;;;;;12.32;2.47;;;7.30;99.70;;;;;;5019649;28;20524;-67
2023/02/02 07:13:22;;;;;;;6.63;2.83;;;7.20;99.80;;;;;;5011641;28;20113;-67
2023/02/02 07:16:08;;;;;;;8.18;2.47;;;7.20;99.50;;;;;;5018088;28;20116;-67
2023/02/02 07:18:55;;;;;;;12.18;2.60;;;7.20;99.50;;;;;;5018809;28;20626;-68
2023/02/02 07:21:41;;;;;;;5.25;2.50;;;7.20;99.50;;;;;;5038956;28;20043;-67
2023/02/02 07:24:27;;;;;;;8.00;2.35;;;7.20;99.50;;;;;;5024248;28;20037;-67
2023/02/02 07:27:13;;;;;;;7.18;2.25;;;7.30;99.50;;;;;;5044043;28;20508;-66
2023/02/02 07:29:59;;;;;;;8.65;2.67;;;7.30;99.20;;;;;;5014847;28;20021;-68
2023/02/02 07:32:49;;;;;;;10.68;2.70;;;7.30;99.30;;;;;;5043784;28;20178;-67
2023/02/02 07:35:34;;;;;;;8.38;2.58;;;7.30;99.20;;;;;;5026327;28;20041;-68
2023/02/02 07:38:20;;;;;;;5.85;2.80;;;7.30;99.20;;;;;;5013568;28;20417;-67
2023/02/02 07:41:06;;;;;;;9.35;2.63;;;7.30;99.00;;;;;;5015881;28;20565;-67
2023/02/02 07:43:52;;;;;;;5.82;2.13;;;7.30;99.00;;;;;;5019879;28;20040;-67
2023/02/02 07:46:38;;;;;;;9.50;3.03;;;7.30;99.10;;;;;;5022033;28;20113;-67
2023/02/02 07:49:24;;;;;;;8.57;3.08;;;7.30;98.50;;;;;;5021018;28;20439;-67
2023/02/02 07:52:10;;;;;;;10.60;2.40;;;7.20;98.80;;;;;;5025968;28;20509;-68
2023/02/02 07:54:56;;;;;;;7.03;2.05;;;7.20;99.00;;;;;;5016202;28;20018;-66
2023/02/02 07:57:42;;;;;;;6.90;2.53;;;7.20;99.00;;;;;;5021361;28;20125;-67
2023/02/02 08:00:28;;;;;;;8.00;2.58;;;7.20;98.90;;;;;;5030461;28;20040;-67
2023/02/02 08:03:14;;;;;;;7.15;2.42;;;7.20;98.90;;;;;;5022533;28;20034;-66
2023/02/02 08:06:07;;;;;;;7.45;2.60;;;7.20;98.90;;;;;;5013322;28;20036;-66
2023/02/02 08:08:53;;;;;;;8.00;3.40;;;7.20;99.00;;;;;;5025697;28;20030;-67
2023/02/02 08:11:39;;;;;;;10.07;3.10;;;7.20;99.10;;;;;;5026315;28;20029;-65
2023/02/02 08:14:25;;;;;;;15.82;3.83;;;7.20;99.10;;;;;;5031772;28;20120;-69
2023/02/02 08:17:12;;;;;;;7.45;3.28;;;7.20;99.20;;;;;;5012286;28;20045;-66
2023/02/02 08:19:58;;;;;;;7.63;2.75;;;7.20;99.40;;;;;;5022647;28;20048;-66
2023/02/02 08:22:43;;;;;;;8.73;3.00;;;7.20;99.40;;;;;;5027075;28;20456;-66
2023/02/02 08:25:29;;;;;;;10.63;2.95;;;7.20;99.50;;;;;;5014321;28;20072;-66
2023/02/02 08:28:17;;;;;;;10.27;2.65;;;7.20;99.60;;;;;;5019989;28;20409;-66
2023/02/02 08:31:14;;;;;;;8.50;2.40;;;7.20;99.60;;;;;;5021264;28;20113;-66
2023/02/02 08:34:00;;;;;;;10.38;3.50;;;7.20;99.70;;;;;;5016842;28;20385;-66
2023/02/02 08:36:46;;;;;;;12.40;3.33;;;7.20;99.80;;;;;;5024156;28;20052;-66
2023/02/02 08:39:32;;;;;;;12.27;3.15;;;7.30;99.90;;;;;;5011810;28;20041;-66
2023/02/02 08:42:18;;;;;;;7.10;2.38;;;7.30;99.90;;;;;;5029718;28;20021;-66
2023/02/02 08:45:05;;;;;;;8.82;2.67;;;7.40;99.90;;;;;;5033051;28;20052;-65
2023/02/02 08:47:52;;;;;;;7.63;3.72;;;7.40;99.90;;;;;;5020830;28;20041;-65
2023/02/02 08:50:38;;;;;;;8.55;2.70;;;7.40;99.90;;;;;;5022051;28;20126;-67
2023/02/02 08:53:25;;;;;;;10.82;3.28;;;7.40;99.90;;;;;;5018602;28;20230;-64
2023/02/02 08:56:16;;;;;;;9.50;2.75;;;7.40;99.80;;;;;;5025806;28;20062;-65
2023/02/02 08:59:04;;;;;;;13.93;4.70;;;7.40;99.80;;;;;;5020051;28;20029;-64
2023/02/02 09:01:50;;;;;;;11.90;3.13;;;7.40;99.90;;;;;;5022033;28;20036;-65
2023/02/02 09:04:36;;;;;;;13.40;2.63;;;7.50;99.90;;;;;;5024518;28;20072;-64
2023/02/02 09:07:21;;;;;;;10.75;3.92;;;7.50;99.90;;;;;;5031685;28;20029;-65
2023/02/02 09:10:08;;;;;;;10.32;3.28;;;7.60;99.90;;;;;;5031418;28;20307;-64
2023/02/02 09:12:54;;;;;;;5.93;2.42;;;7.70;99.90;;;;;;5017651;28;20560;-65
2023/02/02 09:15:40;;;;;;;7.25;3.08;;;7.80;99.90;;;;;;5024518;28;20448;-65
2023/02/02 09:18:26;;;;;;;8.68;3.08;;;7.80;99.90;;;;;;5020817;28;20500;-66
2023/02/02 09:21:15;;;;;;;8.63;2.50;;;7.90;99.80;;;;;;5018002;28;20042;-65
2023/02/02 09:24:09;;;;;;;8.88;2.80;;;7.90;99.50;;;;;;5022333;28;20044;-66
2023/02/02 09:26:55;;;;;;;9.20;2.75;;;8.00;99.40;;;;;;5018891;28;20320;-65
2023/02/02 09:29:40;;;;;;;7.03;2.47;;;8.00;99.40;;;;;;5021912;28;20038;-66
2023/02/02 09:32:26;;;;;;;10.10;4.15;;;8.00;99.10;;;;;;5023419;28;20065;-66
2023/02/02 09:35:12;;;;;;;6.95;2.95;;;8.10;99.10;;;;;;5027384;28;20025;-65
2023/02/02 09:37:58;;;;;;;22.80;3.83;;;8.10;99.20;;;;;;5013167;28;20491;-65
2023/02/02 09:40:44;;;;;;;6.63;2.45;;;8.20;99.10;;;;;;5010783;28;20044;-65
2023/02/02 09:43:41;;;;;;;13.45;3.30;;;8.10;98.80;;;;;;5002842;28;20117;-65
2023/02/02 09:46:45;;;;;;;6.18;2.13;;;8.20;98.80;;;;;;5026417;28;20045;-64
2023/02/02 09:49:33;;;;;;;7.63;2.35;;;8.20;98.90;;;;;;5010447;28;20033;-64
2023/02/02 09:52:28;;;;;;;8.80;3.35;;;8.30;98.80;;;;;;5019332;28;20026;-64
2023/02/02 09:55:34;;;;;;;8.50;3.17;;;8.20;98.50;;;;;;5012317;28;20034;-65
2023/02/02 09:58:55;;;;;;;7.93;2.00;;;8.20;98.50;;;;;;5012812;28;20399;-65
2023/02/02 10:01:43;;;;;;;8.43;2.22;;;8.20;97.90;;;;;;4947180;28;20495;-65
2023/02/02 10:04:35;;;;;;;7.20;2.58;;;8.10;97.60;;;;;;5028404;28;20084;-64
2023/02/02 10:07:33;;;;;;;5.63;2.28;;;8.20;97.80;;;;;;5017391;28;20136;-65
2023/02/02 10:10:25;;;;;;;8.40;2.58;;;8.20;98.00;;;;;;5021595;28;20417;-65
2023/02/02 10:13:17;;;;;;;8.48;2.63;;;8.20;97.40;;;;;;5023743;28;20036;-66
2023/02/02 10:16:15;;;;;;;17.23;2.75;;;8.20;97.40;;;;;;4996963;28;20038;-65
2023/02/02 10:19:10;;;;;;;14.45;2.97;;;8.20;97.30;;;;;;5022964;28;20041;-66
2023/02/02 10:22:13;;;;;;;6.38;2.72;;;8.20;97.50;;;;;;5027011;28;20022;-66
2023/02/02 10:24:59;;;;;;;8.70;2.42;;;8.20;97.60;;;;;;5018417;28;20030;-65
2023/02/02 10:28:05;;;;;;;5.93;2.22;;;8.10;97.10;;;;;;5014521;28;20099;-65
2023/02/02 10:31:00;;;;;;;9.87;2.83;;;8.10;96.90;;;;;;5027519;28;20040;-65
2023/02/02 10:34:08;;;;;;;6.55;2.08;;;8.20;97.20;;;;;;5026301;28;20296;-65
2023/02/02 10:37:12;;;;;;;10.20;2.97;;;8.20;97.40;;;;;;5028106;28;20450;-65
2023/02/02 10:40:06;;;;;;;6.63;2.40;;;8.30;97.20;;;;;;5016092;28;20540;-65
2023/02/02 10:46:22;;;;;;;6.57;1.83;;;8.20;96.70;;;;;;5015629;28;20378;-65
2023/02/02 10:49:33;;;;;;;8.00;2.30;;;8.30;96.30;;;;;;5012822;28;20378;-64
2023/02/02 10:52:31;;;;;;;5.13;1.85;;;8.30;95.50;;;;;;5025489;28;20041;-65
2023/02/02 10:55:37;;;;;;;8.52;2.75;;;8.30;95.10;;;;;;5025089;28;20980;-65
2023/02/02 10:58:29;;;;;;;4.72;1.80;;;8.30;95.20;;;;;;4994848;28;20038;-65
2023/02/02 11:01:16;;;;;;;4.70;2.20;;;8.30;95.40;;;;;;4997991;28;20042;-65
2023/02/02 11:07:08;;;;;;;7.25;2.58;;;8.40;94.80;;;;;;4995603;28;20484;-64
2023/02/02 11:09:54;;;;;;;4.88;1.73;;;8.40;95.00;;;;;;4995990;28;20026;-65
2023/02/02 11:12:45;;;;;;;6.57;1.63;;;8.50;95.30;;;;;;4996169;28;20388;-65
2023/02/02 11:15:31;;;;;;;6.85;2.00;;;8.50;95.20;;;;;;4994392;28;20481;-65
2023/02/02 11:18:28;;;;;;;5.82;1.88;;;8.60;95.10;;;;;;5004599;28;20038;-65
2023/02/02 11:21:26;;;;;;;3.33;1.33;;;8.60;94.30;;;;;;5009117;28;20045;-65
2023/02/02 11:24:23;;;;;;;5.45;2.33;;;8.70;93.90;;;;;;5010626;28;20034;-66
2023/02/02 11:27:13;;;;;;;10.00;2.90;;;8.70;94.50;;;;;;5012984;28;20263;-65
2023/02/02 11:30:10;;;;;;;5.22;2.00;;;8.70;94.60;;;;;;4996546;28;20034;-66
2023/02/02 11:32:56;;;;;;;5.35;1.75;;;8.80;94.50;;;;;;4999514;28;20033;-65
2023/02/02 11:35:53;;;;;;;11.10;2.33;;;8.80;94.60;;;;;;5008119;28;20044;-65
2023/02/02 11:38:39;;;;;;;4.72;2.03;;;8.90;94.20;;;;;;4996469;28;20052;-65
2023/02/02 11:41:30;;;;;;;6.63;3.00;;;8.90;93.70;;;;;;5007126;28;20118;-66
2023/02/02 11:44:27;;;;;;;7.18;2.65;;;8.80;94.10;;;;;;4995932;28;20645;-66
2023/02/02 11:47:40;;;;;;;4.53;1.95;;;8.90;94.20;;;;;;5000832;28;20117;-67
2023/02/02 11:50:27;;;;;;;6.72;2.05;;;9.00;94.30;;;;;;4997025;28;20062;-67
2023/02/02 11:53:36;;;;;;;7.20;2.35;;;9.10;94.40;;;;;;4995558;28;20507;-66
2023/02/02 11:56:25;;;;;;;12.15;2.40;;;9.20;94.10;;;;;;5009131;28;20124;-67
2023/02/02 11:59:35;;;;;;;4.82;2.45;;;9.20;93.90;;;;;;5016474;28;20065;-66
2023/02/02 12:02:27;;;;;;;7.70;1.67;;;9.20;93.80;;;;;;5016071;28;20058;-65
2023/02/02 12:05:19;;;;;;;8.55;2.30;;;9.20;93.80;;;;;;5024417;28;20072;-65
2023/02/02 12:08:11;;;;;;;8.15;2.50;;;9.10;93.50;;;;;;5028128;28;20293;-66
2023/02/02 12:10:58;;;;;;;7.38;2.03;;;9.10;94.00;;;;;;5020957;28;20061;-66
2023/02/02 12:14:26;;;;;;;5.68;1.98;;;9.10;94.10;;;;;;5020460;28;20029;-65
2023/02/02 12:17:46;;;;;;;5.68;2.13;;;9.00;94.20;;;;;;5026725;28;20453;-65
2023/02/02 12:21:16;;;;;;;9.43;2.08;;;8.80;94.80;;;;;;5010887;28;20049;-66
2023/02/02 12:24:10;;;;;;;7.15;2.40;;;8.80;95.30;;;;;;4951681;28;20344;-66
2023/02/02 12:27:16;;;;;;;7.27;3.27;;;8.70;95.90;;;;;;4944024;29;20035;-65
2023/02/02 12:30:04;;;;;;;;;;;8.50;96.30;;;;;;5014854;28;20033;-67
2023/02/02 12:33:00;;;;;;;5.57;2.20;;;8.50;96.70;;;;;;5021316;28;19917;-66
2023/02/02 12:36:00;;;;;;;5.32;1.90;;;8.30;96.90;;;;;;5019516;28;20040;-66
2023/02/02 12:39:01;;;;;;;8.43;1.70;;;8.20;96.70;;;;;;5020559;28;20581;-66
2023/02/02 12:41:59;;;;;;;5.20;1.70;;;8.00;96.10;;;;;;5024696;28;20060;-67
2023/02/02 12:45:03;;;;;;;4.75;2.15;;;7.90;96.40;;;;;;5025561;28;20528;-66
2023/02/02 12:48:16;;;;;;;6.85;2.33;;;7.90;96.70;;;;;;5003402;28;20081;-67
2023/02/02 12:51:20;;;;;;;5.70;2.25;;;7.90;96.70;;;;;;5030336;28;20036;-67
2023/02/02 12:54:35;;;;;;;5.13;2.38;;;7.90;96.60;;;;;;5014175;28;20437;-65
2023/02/02 12:57:27;;;;;;;6.97;2.10;;;7.90;96.70;;;;;;5015223;28;20100;-65
2023/02/02 13:00:38;;;;;;;5.88;2.17;;;7.90;96.60;;;;;;5021781;28;20292;-64
2023/02/02 13:03:56;;;;;;;7.15;2.92;;;8.00;96.70;;;;;;5018900;28;20018;-66
2023/02/02 13:07:03;;;;;;;6.13;2.00;;;8.00;96.40;;;;;;5012636;28;20480;-66
2023/02/02 13:09:49;;;;;;;8.23;2.42;;;7.90;96.00;;;;;;5012242;28;20120;-66
2023/02/02 13:12:56;;;;;;;9.77;2.70;;;7.90;96.10;;;;;;5013912;28;20033;-66
2023/02/02 13:15:48;;;;;;;3.97;1.77;;;7.90;96.00;;;;;;5015946;28;20076;-65
2023/02/02 13:18:40;;;;;;;5.63;2.30;;;7.90;95.90;;;;;;5017847;28;20030;-66
2023/02/02 13:21:29;;;;;;;6.45;2.20;;;8.00;95.90;;;;;;5018077;28;20375;-66
2023/02/02 13:24:22;;;;;;;6.03;2.03;;;8.10;95.60;;;;;;5014245;28;20030;-66
2023/02/02 13:27:14;;;;;;;4.43;1.75;;;8.20;95.70;;;;;;5012741;28;20069;-68
2023/02/02 13:30:11;;;;;;;6.28;2.20;;;8.20;95.50;;;;;;5022774;28;20441;-66
2023/02/02 13:33:23;;;;;;;6.75;2.67;;;8.20;95.60;;;;;;5028932;28;20032;-67
2023/02/02 13:36:24;;;;;;;6.88;2.35;;;8.30;95.70;;;;;;5016670;28;20053;-67
2023/02/02 13:39:22;;;;;;;5.97;2.42;;;8.40;95.70;;;;;;5017218;28;20042;-67
2023/02/02 13:42:31;;;;;;;6.15;2.10;;;8.50;95.50;;;;;;5038675;28;20025;-67
2023/02/02 13:45:48;;;;;;;6.40;1.90;;;8.60;95.50;;;;;;5033758;28;20029;-67
2023/02/02 13:48:59;;;;;;;5.70;1.70;;;8.70;95.10;;;;;;5022444;28;20049;-66
2023/02/02 13:52:22;;;;;;;6.30;2.10;;;8.80;94.80;;;;;;5026972;28;20025;-67
2023/02/02 13:55:32;;;;;;;6.72;2.45;;;8.90;95.10;;;;;;5012826;28;20026;-67
2023/02/02 13:58:56;;;;;;;6.05;2.08;;;8.90;94.70;;;;;;5021314;28;20060;-66
2023/02/02 14:01:47;;;;;;;9.05;2.42;;;9.00;94.80;;;;;;5022878;28;20034;-66
2023/02/02 14:04:34;;;;;;;4.90;1.83;;;9.10;94.70;;;;;;5021032;28;20021;-66
2023/02/02 14:07:32;;;;;;;5.57;2.03;;;9.20;94.90;;;;;;5020687;28;20564;-67
2023/02/02 14:10:28;;;;;;;6.65;2.05;;;9.40;94.70;;;;;;5018686;28;20044;-67
2023/02/02 14:16:32;;;;;;;5.88;1.92;;;9.30;94.40;;;;;;5027593;28;20369;-66
2023/02/02 14:19:38;;;;;;;4.07;1.75;;;9.20;93.20;;;;;;5015712;28;20083;-68
2023/02/02 14:22:44;;;;;;;3.25;1.60;;;9.10;93.10;;;;;;5018969;28;20045;-68
2023/02/02 14:25:32;;;;;;;5.30;1.48;;;9.00;92.50;;;;;;5018890;28;20046;-68